sensor_id;sensor_type;location;lat;lon;timestamp;P1;durP1;ratioP1;P2;durP2;ratioP2
9186;SDS011;7273;48.902;9.410;2023-04-03T00:00:04;37.67;;;29.10;;
9186;SDS011;7273;48.902;9.410;2023-04-03T00:02:30;38.22;;;28.98;;
9186;SDS011;7273;48.902;9.410;2023-04-03T00:04:56;39.92;;;29.88;;
9186;SDS011;7273;48.902;9.410;2023-04-03T00:07:21;40.90;;;30.45;;
9186;SDS011;7273;48.902;9.410;2023-04-03T00:09:47;39.53;;;29.30;;
9186;SDS011;7273;48.902;9.410;2023-04-03T00:12:13;40.35;;;29.77;;
9186;SDS011;7273;48.902;9.410;2023-04-03T00:14:38;36.88;;;29.02;;
9186;SDS011;7273;48.902;9.410;2023-04-03T00:17:04;33.22;;;27.10;;
9186;SDS011;7273;48.902;9.410;2023-04-03T00:19:30;29.73;;;25.20;;
9186;SDS011;7273;48.902;9.410;2023-04-03T00:21:55;29.35;;;24.98;;
9186;SDS011;7273;48.902;9.410;2023-04-03T00:24:21;24.42;;;21.70;;
9186;SDS011;7273;48.902;9.410;2023-04-03T00:26:47;22.45;;;20.20;;
9186;SDS011;7273;48.902;9.410;2023-04-03T00:29:12;33.25;;;27.15;;
9186;SDS011;7273;48.902;9.410;2023-04-03T00:31:38;32.90;;;26.63;;
9186;SDS011;7273;48.902;9.410;2023-04-03T00:34:04;36.22;;;27.83;;
9186;SDS011;7273;48.902;9.410;2023-04-03T00:36:30;36.05;;;27.77;;
9186;SDS011;7273;48.902;9.410;2023-04-03T00:38:55;34.38;;;27.05;;
9186;SDS011;7273;48.902;9.410;2023-04-03T00:41:21;36.03;;;27.80;;
9186;SDS011;7273;48.902;9.410;2023-04-03T00:43:47;37.08;;;28.08;;
9186;SDS011;7273;48.902;9.410;2023-04-03T00:46:12;37.55;;;28.27;;
9186;SDS011;7273;48.902;9.410;2023-04-03T00:48:44;38.95;;;28.92;;
9186;SDS011;7273;48.902;9.410;2023-04-03T00:51:16;41.70;;;29.88;;
9186;SDS011;7273;48.902;9.410;2023-04-03T00:53:49;45.83;;;31.33;;
9186;SDS011;7273;48.902;9.410;2023-04-03T00:56:19;48.22;;;32.60;;
9186;SDS011;7273;48.902;9.410;2023-04-03T00:58:57;48.92;;;32.67;;
9186;SDS011;7273;48.902;9.410;2023-04-03T01:01:31;52.00;;;33.80;;
9186;SDS011;7273;48.902;9.410;2023-04-03T01:04:00;50.88;;;33.22;;
9186;SDS011;7273;48.902;9.410;2023-04-03T01:06:28;52.50;;;34.08;;
9186;SDS011;7273;48.902;9.410;2023-04-03T01:08:57;51.38;;;33.05;;
9186;SDS011;7273;48.902;9.410;2023-04-03T01:11:24;51.08;;;32.90;;
9186;SDS011;7273;48.902;9.410;2023-04-03T01:13:50;51.55;;;33.30;;
9186;SDS011;7273;48.902;9.410;2023-04-03T01:16:15;52.33;;;33.97;;
9186;SDS011;7273;48.902;9.410;2023-04-03T01:18:41;50.85;;;33.03;;
9186;SDS011;7273;48.902;9.410;2023-04-03T01:21:11;51.80;;;33.40;;
9186;SDS011;7273;48.902;9.410;2023-04-03T01:23:43;50.63;;;33.25;;
9186;SDS011;7273;48.902;9.410;2023-04-03T01:26:10;46.55;;;32.25;;
9186;SDS011;7273;48.902;9.410;2023-04-03T01:28:37;45.70;;;31.65;;
9186;SDS011;7273;48.902;9.410;2023-04-03T01:33:56;48.95;;;32.80;;
9186;SDS011;7273;48.902;9.410;2023-04-03T01:36:24;46.50;;;31.60;;
9186;SDS011;7273;48.902;9.410;2023-04-03T01:38:52;46.10;;;31.40;;
9186;SDS011;7273;48.902;9.410;2023-04-03T01:41:19;46.97;;;32.17;;
9186;SDS011;7273;48.902;9.410;2023-04-03T01:43:46;50.55;;;33.15;;
9186;SDS011;7273;48.902;9.410;2023-04-03T01:46:12;49.85;;;33.53;;
9186;SDS011;7273;48.902;9.410;2023-04-03T01:48:38;49.80;;;33.30;;
9186;SDS011;7273;48.902;9.410;2023-04-03T01:51:04;47.97;;;32.28;;
9186;SDS011;7273;48.902;9.410;2023-04-03T01:53:29;47.35;;;32.38;;
9186;SDS011;7273;48.902;9.410;2023-04-03T01:55:55;46.65;;;31.95;;
9186;SDS011;7273;48.902;9.410;2023-04-03T01:58:20;46.80;;;31.70;;
9186;SDS011;7273;48.902;9.410;2023-04-03T02:00:45;45.95;;;31.92;;
9186;SDS011;7273;48.902;9.410;2023-04-03T02:03:11;43.67;;;30.83;;
9186;SDS011;7273;48.902;9.410;2023-04-03T02:05:37;42.95;;;30.42;;
9186;SDS011;7273;48.902;9.410;2023-04-03T02:08:02;43.67;;;30.35;;
9186;SDS011;7273;48.902;9.410;2023-04-03T02:10:28;39.88;;;29.38;;
9186;SDS011;7273;48.902;9.410;2023-04-03T02:12:53;38.80;;;29.10;;
9186;SDS011;7273;48.902;9.410;2023-04-03T02:15:19;38.40;;;28.75;;
9186;SDS011;7273;48.902;9.410;2023-04-03T02:17:44;40.03;;;29.25;;
9186;SDS011;7273;48.902;9.410;2023-04-03T02:20:10;40.15;;;29.48;;
9186;SDS011;7273;48.902;9.410;2023-04-03T02:22:36;38.65;;;28.77;;
9186;SDS011;7273;48.902;9.410;2023-04-03T02:25:01;38.30;;;28.63;;
9186;SDS011;7273;48.902;9.410;2023-04-03T02:27:27;38.85;;;28.88;;
9186;SDS011;7273;48.902;9.410;2023-04-03T02:29:52;38.50;;;29.05;;
9186;SDS011;7273;48.902;9.410;2023-04-03T02:32:18;38.28;;;28.77;;
9186;SDS011;7273;48.902;9.410;2023-04-03T02:34:43;39.22;;;29.15;;
9186;SDS011;7273;48.902;9.410;2023-04-03T02:37:09;40.20;;;29.85;;
9186;SDS011;7273;48.902;9.410;2023-04-03T02:39:34;39.40;;;29.13;;
9186;SDS011;7273;48.902;9.410;2023-04-03T02:42:00;36.15;;;27.45;;
9186;SDS011;7273;48.902;9.410;2023-04-03T02:44:25;37.95;;;29.70;;
9186;SDS011;7273;48.902;9.410;2023-04-03T02:46:50;35.92;;;27.75;;
9186;SDS011;7273;48.902;9.410;2023-04-03T02:49:16;34.83;;;27.38;;
9186;SDS011;7273;48.902;9.410;2023-04-03T02:51:42;35.90;;;27.85;;
9186;SDS011;7273;48.902;9.410;2023-04-03T02:54:07;37.20;;;28.57;;
9186;SDS011;7273;48.902;9.410;2023-04-03T02:56:33;37.40;;;28.48;;
9186;SDS011;7273;48.902;9.410;2023-04-03T02:58:59;36.47;;;28.23;;
9186;SDS011;7273;48.902;9.410;2023-04-03T03:01:24;36.33;;;28.25;;
9186;SDS011;7273;48.902;9.410;2023-04-03T03:03:52;35.47;;;27.67;;
9186;SDS011;7273;48.902;9.410;2023-04-03T03:06:17;37.77;;;28.47;;
9186;SDS011;7273;48.902;9.410;2023-04-03T03:08:43;38.05;;;28.75;;
9186;SDS011;7273;48.902;9.410;2023-04-03T03:11:09;38.25;;;29.00;;
9186;SDS011;7273;48.902;9.410;2023-04-03T03:13:35;40.67;;;30.02;;
9186;SDS011;7273;48.902;9.410;2023-04-03T03:16:01;39.72;;;29.17;;
9186;SDS011;7273;48.902;9.410;2023-04-03T03:18:26;39.63;;;29.52;;
9186;SDS011;7273;48.902;9.410;2023-04-03T03:20:53;41.70;;;30.33;;
9186;SDS011;7273;48.902;9.410;2023-04-03T03:23:20;44.80;;;31.45;;
9186;SDS011;7273;48.902;9.410;2023-04-03T03:25:46;47.05;;;31.98;;
9186;SDS011;7273;48.902;9.410;2023-04-03T03:28:12;50.75;;;33.22;;
9186;SDS011;7273;48.902;9.410;2023-04-03T03:30:37;53.97;;;34.50;;
9186;SDS011;7273;48.902;9.410;2023-04-03T03:33:03;56.17;;;35.60;;
9186;SDS011;7273;48.902;9.410;2023-04-03T03:35:28;56.72;;;35.38;;
9186;SDS011;7273;48.902;9.410;2023-04-03T03:37:54;56.17;;;35.40;;
9186;SDS011;7273;48.902;9.410;2023-04-03T03:40:19;58.58;;;35.95;;
9186;SDS011;7273;48.902;9.410;2023-04-03T03:42:45;59.38;;;36.35;;
9186;SDS011;7273;48.902;9.410;2023-04-03T03:45:10;59.35;;;35.92;;
9186;SDS011;7273;48.902;9.410;2023-04-03T03:47:36;59.17;;;36.25;;
9186;SDS011;7273;48.902;9.410;2023-04-03T03:50:01;60.53;;;36.78;;
9186;SDS011;7273;48.902;9.410;2023-04-03T03:52:27;60.25;;;36.25;;
9186;SDS011;7273;48.902;9.410;2023-04-03T03:54:53;59.95;;;36.08;;
9186;SDS011;7273;48.902;9.410;2023-04-03T03:57:18;62.55;;;37.47;;
9186;SDS011;7273;48.902;9.410;2023-04-03T03:59:44;63.60;;;38.97;;
9186;SDS011;7273;48.902;9.410;2023-04-03T04:02:10;69.13;;;39.47;;
9186;SDS011;7273;48.902;9.410;2023-04-03T04:04:36;68.57;;;39.22;;
9186;SDS011;7273;48.902;9.410;2023-04-03T04:07:02;68.65;;;39.97;;
9186;SDS011;7273;48.902;9.410;2023-04-03T04:09:28;67.88;;;39.65;;
9186;SDS011;7273;48.902;9.410;2023-04-03T04:11:53;68.05;;;39.40;;
9186;SDS011;7273;48.902;9.410;2023-04-03T04:14:18;67.53;;;39.20;;
9186;SDS011;7273;48.902;9.410;2023-04-03T04:16:45;65.95;;;38.75;;
9186;SDS011;7273;48.902;9.410;2023-04-03T04:19:12;75.03;;;42.33;;
9186;SDS011;7273;48.902;9.410;2023-04-03T04:21:37;67.07;;;39.25;;
9186;SDS011;7273;48.902;9.410;2023-04-03T04:24:04;66.28;;;39.33;;
9186;SDS011;7273;48.902;9.410;2023-04-03T04:26:30;69.22;;;40.47;;
9186;SDS011;7273;48.902;9.410;2023-04-03T04:28:55;67.45;;;40.17;;
9186;SDS011;7273;48.902;9.410;2023-04-03T04:31:21;68.10;;;40.17;;
9186;SDS011;7273;48.902;9.410;2023-04-03T04:33:46;66.40;;;39.50;;
9186;SDS011;7273;48.902;9.410;2023-04-03T04:36:11;67.30;;;39.90;;
9186;SDS011;7273;48.902;9.410;2023-04-03T04:38:37;70.43;;;43.15;;
9186;SDS011;7273;48.902;9.410;2023-04-03T04:41:03;68.20;;;39.50;;
9186;SDS011;7273;48.902;9.410;2023-04-03T04:43:29;65.90;;;39.08;;
9186;SDS011;7273;48.902;9.410;2023-04-03T04:46:01;66.47;;;39.88;;
9186;SDS011;7273;48.902;9.410;2023-04-03T04:48:27;68.35;;;40.47;;
9186;SDS011;7273;48.902;9.410;2023-04-03T04:50:52;67.53;;;40.20;;
9186;SDS011;7273;48.902;9.410;2023-04-03T04:53:17;69.72;;;40.35;;
9186;SDS011;7273;48.902;9.410;2023-04-03T04:55:43;63.63;;;38.55;;
9186;SDS011;7273;48.902;9.410;2023-04-03T04:58:08;69.35;;;42.67;;
9186;SDS011;7273;48.902;9.410;2023-04-03T05:00:33;66.93;;;39.13;;
9186;SDS011;7273;48.902;9.410;2023-04-03T05:02:59;64.97;;;38.55;;
9186;SDS011;7273;48.902;9.410;2023-04-03T05:05:24;66.75;;;39.55;;
9186;SDS011;7273;48.902;9.410;2023-04-03T05:07:50;61.58;;;37.10;;
9186;SDS011;7273;48.902;9.410;2023-04-03T05:10:15;74.37;;;39.20;;
9186;SDS011;7273;48.902;9.410;2023-04-03T05:12:40;71.68;;;40.67;;
9186;SDS011;7273;48.902;9.410;2023-04-03T05:15:06;71.05;;;40.33;;
9186;SDS011;7273;48.902;9.410;2023-04-03T05:17:32;75.63;;;41.88;;
9186;SDS011;7273;48.902;9.410;2023-04-03T05:19:57;77.85;;;42.33;;
9186;SDS011;7273;48.902;9.410;2023-04-03T05:22:23;77.63;;;41.75;;
9186;SDS011;7273;48.902;9.410;2023-04-03T05:24:48;78.13;;;42.20;;
9186;SDS011;7273;48.902;9.410;2023-04-03T05:27:13;80.47;;;43.08;;
9186;SDS011;7273;48.902;9.410;2023-04-03T05:29:39;82.72;;;43.97;;
9186;SDS011;7273;48.902;9.410;2023-04-03T05:32:08;81.68;;;43.30;;
9186;SDS011;7273;48.902;9.410;2023-04-03T05:34:34;82.03;;;43.63;;
9186;SDS011;7273;48.902;9.410;2023-04-03T05:36:59;81.90;;;43.38;;
9186;SDS011;7273;48.902;9.410;2023-04-03T05:39:25;82.82;;;43.55;;
9186;SDS011;7273;48.902;9.410;2023-04-03T05:41:50;84.57;;;44.10;;
9186;SDS011;7273;48.902;9.410;2023-04-03T05:44:16;87.28;;;45.42;;
9186;SDS011;7273;48.902;9.410;2023-04-03T05:46:41;88.00;;;46.10;;
9186;SDS011;7273;48.902;9.410;2023-04-03T05:49:06;81.03;;;43.28;;
9186;SDS011;7273;48.902;9.410;2023-04-03T05:51:33;80.00;;;43.45;;
9186;SDS011;7273;48.902;9.410;2023-04-03T05:56:30;95.38;;;47.60;;
9186;SDS011;7273;48.902;9.410;2023-04-03T05:58:56;88.28;;;45.25;;
9186;SDS011;7273;48.902;9.410;2023-04-03T06:01:21;81.82;;;43.30;;
9186;SDS011;7273;48.902;9.410;2023-04-03T06:03:48;78.72;;;42.20;;
9186;SDS011;7273;48.902;9.410;2023-04-03T06:06:14;80.45;;;43.05;;
9186;SDS011;7273;48.902;9.410;2023-04-03T06:08:40;80.18;;;43.00;;
9186;SDS011;7273;48.902;9.410;2023-04-03T06:11:05;76.40;;;41.60;;
9186;SDS011;7273;48.902;9.410;2023-04-03T06:13:31;76.20;;;41.35;;
9186;SDS011;7273;48.902;9.410;2023-04-03T06:15:56;77.13;;;42.00;;
9186;SDS011;7273;48.902;9.410;2023-04-03T06:18:22;76.72;;;41.78;;
9186;SDS011;7273;48.902;9.410;2023-04-03T06:20:48;73.32;;;41.47;;
9186;SDS011;7273;48.902;9.410;2023-04-03T06:23:13;71.60;;;40.17;;
9186;SDS011;7273;48.902;9.410;2023-04-03T06:25:39;75.53;;;42.53;;
9186;SDS011;7273;48.902;9.410;2023-04-03T06:28:04;71.55;;;40.17;;
9186;SDS011;7273;48.902;9.410;2023-04-03T06:30:30;71.68;;;40.63;;
9186;SDS011;7273;48.902;9.410;2023-04-03T06:32:56;81.88;;;44.35;;
9186;SDS011;7273;48.902;9.410;2023-04-03T06:35:21;89.70;;;46.67;;
9186;SDS011;7273;48.902;9.410;2023-04-03T06:37:48;87.22;;;45.50;;
9186;SDS011;7273;48.902;9.410;2023-04-03T06:40:18;78.85;;;43.67;;
9186;SDS011;7273;48.902;9.410;2023-04-03T06:42:47;81.50;;;44.15;;
9186;SDS011;7273;48.902;9.410;2023-04-03T06:45:13;77.05;;;42.28;;
9186;SDS011;7273;48.902;9.410;2023-04-03T06:47:38;79.72;;;43.13;;
9186;SDS011;7273;48.902;9.410;2023-04-03T06:50:04;78.35;;;42.58;;
9186;SDS011;7273;48.902;9.410;2023-04-03T06:52:31;81.13;;;44.05;;
9186;SDS011;7273;48.902;9.410;2023-04-03T06:54:57;84.00;;;47.05;;
9186;SDS011;7273;48.902;9.410;2023-04-03T06:57:24;78.40;;;42.88;;
9186;SDS011;7273;48.902;9.410;2023-04-03T06:59:50;76.03;;;42.42;;
9186;SDS011;7273;48.902;9.410;2023-04-03T07:02:16;77.35;;;42.50;;
9186;SDS011;7273;48.902;9.410;2023-04-03T07:04:42;84.07;;;45.50;;
9186;SDS011;7273;48.902;9.410;2023-04-03T07:07:07;78.25;;;43.22;;
9186;SDS011;7273;48.902;9.410;2023-04-03T07:09:33;76.13;;;42.92;;
9186;SDS011;7273;48.902;9.410;2023-04-03T07:11:59;74.25;;;41.88;;
9186;SDS011;7273;48.902;9.410;2023-04-03T07:14:25;76.68;;;42.95;;
9186;SDS011;7273;48.902;9.410;2023-04-03T07:16:50;76.38;;;43.35;;
9186;SDS011;7273;48.902;9.410;2023-04-03T07:19:15;74.93;;;42.20;;
9186;SDS011;7273;48.902;9.410;2023-04-03T07:21:43;75.10;;;42.10;;
9186;SDS011;7273;48.902;9.410;2023-04-03T07:24:09;71.45;;;41.05;;
9186;SDS011;7273;48.902;9.410;2023-04-03T07:26:35;73.55;;;42.30;;
9186;SDS011;7273;48.902;9.410;2023-04-03T07:29:01;71.90;;;42.00;;
9186;SDS011;7273;48.902;9.410;2023-04-03T07:31:26;71.97;;;41.78;;
9186;SDS011;7273;48.902;9.410;2023-04-03T07:33:52;70.43;;;41.05;;
9186;SDS011;7273;48.902;9.410;2023-04-03T07:36:19;72.50;;;42.30;;
9186;SDS011;7273;48.902;9.410;2023-04-03T07:41:15;87.13;;;47.03;;
9186;SDS011;7273;48.902;9.410;2023-04-03T07:43:42;81.45;;;44.78;;
9186;SDS011;7273;48.902;9.410;2023-04-03T07:46:08;69.78;;;41.55;;
9186;SDS011;7273;48.902;9.410;2023-04-03T07:48:34;67.57;;;41.15;;
9186;SDS011;7273;48.902;9.410;2023-04-03T07:51:00;67.78;;;43.33;;
9186;SDS011;7273;48.902;9.410;2023-04-03T07:53:27;60.88;;;38.25;;
9186;SDS011;7273;48.902;9.410;2023-04-03T07:55:53;66.70;;;42.13;;
9186;SDS011;7273;48.902;9.410;2023-04-03T07:58:21;55.72;;;36.63;;
9186;SDS011;7273;48.902;9.410;2023-04-03T08:00:46;52.58;;;35.13;;
9186;SDS011;7273;48.902;9.410;2023-04-03T08:03:13;52.00;;;36.00;;
9186;SDS011;7273;48.902;9.410;2023-04-03T08:08:07;70.65;;;41.08;;
9186;SDS011;7273;48.902;9.410;2023-04-03T08:10:33;64.85;;;39.60;;
9186;SDS011;7273;48.902;9.410;2023-04-03T08:12:59;61.97;;;38.88;;
9186;SDS011;7273;48.902;9.410;2023-04-03T08:15:25;65.25;;;40.00;;
9186;SDS011;7273;48.902;9.410;2023-04-03T08:17:51;63.83;;;39.58;;
9186;SDS011;7273;48.902;9.410;2023-04-03T08:20:17;64.05;;;39.78;;
9186;SDS011;7273;48.902;9.410;2023-04-03T08:22:42;63.50;;;38.83;;
9186;SDS011;7273;48.902;9.410;2023-04-03T08:25:08;63.78;;;38.95;;
9186;SDS011;7273;48.902;9.410;2023-04-03T08:27:34;63.42;;;39.22;;
9186;SDS011;7273;48.902;9.410;2023-04-03T08:30:00;64.40;;;40.00;;
9186;SDS011;7273;48.902;9.410;2023-04-03T08:32:26;76.35;;;42.72;;
9186;SDS011;7273;48.902;9.410;2023-04-03T08:34:52;82.57;;;45.15;;
9186;SDS011;7273;48.902;9.410;2023-04-03T08:37:18;72.25;;;43.15;;
9186;SDS011;7273;48.902;9.410;2023-04-03T08:39:44;73.75;;;44.15;;
9186;SDS011;7273;48.902;9.410;2023-04-03T08:42:23;70.68;;;42.03;;
9186;SDS011;7273;48.902;9.410;2023-04-03T08:50:15;63.10;;;39.20;;
9186;SDS011;7273;48.902;9.410;2023-04-03T08:53:01;61.75;;;38.95;;
9186;SDS011;7273;48.902;9.410;2023-04-03T08:55:33;56.20;;;36.97;;
9186;SDS011;7273;48.902;9.410;2023-04-03T08:58:06;49.60;;;34.67;;
9186;SDS011;7273;48.902;9.410;2023-04-03T09:01:01;51.42;;;34.75;;
9186;SDS011;7273;48.902;9.410;2023-04-03T09:03:33;51.92;;;35.88;;
9186;SDS011;7273;48.902;9.410;2023-04-03T09:14:33;57.25;;;37.88;;
9186;SDS011;7273;48.902;9.410;2023-04-03T09:17:29;52.95;;;36.13;;
9186;SDS011;7273;48.902;9.410;2023-04-03T09:22:49;60.53;;;39.28;;
9186;SDS011;7273;48.902;9.410;2023-04-03T09:25:36;53.50;;;36.50;;
9186;SDS011;7273;48.902;9.410;2023-04-03T09:28:04;59.00;;;38.35;;
9186;SDS011;7273;48.902;9.410;2023-04-03T09:30:34;60.88;;;38.63;;
9186;SDS011;7273;48.902;9.410;2023-04-03T09:33:00;57.95;;;37.45;;
9186;SDS011;7273;48.902;9.410;2023-04-03T09:35:34;54.20;;;36.22;;
9186;SDS011;7273;48.902;9.410;2023-04-03T09:45:50;49.55;;;34.67;;
9186;SDS011;7273;48.902;9.410;2023-04-03T09:48:20;45.97;;;32.80;;
9186;SDS011;7273;48.902;9.410;2023-04-03T09:53:37;52.97;;;35.58;;
9186;SDS011;7273;48.902;9.410;2023-04-03T09:58:44;55.55;;;36.50;;
9186;SDS011;7273;48.902;9.410;2023-04-03T10:01:27;45.50;;;33.40;;
9186;SDS011;7273;48.902;9.410;2023-04-03T10:06:29;56.95;;;36.92;;
9186;SDS011;7273;48.902;9.410;2023-04-03T10:08:59;61.00;;;38.42;;
9186;SDS011;7273;48.902;9.410;2023-04-03T10:11:27;61.33;;;38.35;;
9186;SDS011;7273;48.902;9.410;2023-04-03T10:16:31;59.47;;;37.78;;
9186;SDS011;7273;48.902;9.410;2023-04-03T10:21:45;66.50;;;40.25;;
9186;SDS011;7273;48.902;9.410;2023-04-03T10:24:44;74.50;;;42.80;;
9186;SDS011;7273;48.902;9.410;2023-04-03T10:48:48;58.17;;;37.47;;
9186;SDS011;7273;48.902;9.410;2023-04-03T10:51:17;53.88;;;36.38;;
9186;SDS011;7273;48.902;9.410;2023-04-03T10:56:56;50.53;;;35.28;;
9186;SDS011;7273;48.902;9.410;2023-04-03T11:02:20;50.72;;;34.95;;
9186;SDS011;7273;48.902;9.410;2023-04-03T11:05:06;51.28;;;34.83;;
9186;SDS011;7273;48.902;9.410;2023-04-03T11:07:42;52.85;;;35.38;;
9186;SDS011;7273;48.902;9.410;2023-04-03T11:10:13;50.72;;;35.17;;
9186;SDS011;7273;48.902;9.410;2023-04-03T11:13:11;54.30;;;36.42;;
9186;SDS011;7273;48.902;9.410;2023-04-03T11:15:42;55.75;;;36.42;;
9186;SDS011;7273;48.902;9.410;2023-04-03T11:18:21;52.65;;;35.45;;
9186;SDS011;7273;48.902;9.410;2023-04-03T11:23:44;55.72;;;36.20;;
9186;SDS011;7273;48.902;9.410;2023-04-03T11:26:14;53.75;;;36.20;;
9186;SDS011;7273;48.902;9.410;2023-04-03T11:28:43;51.40;;;35.80;;
9186;SDS011;7273;48.902;9.410;2023-04-03T11:34:28;55.10;;;36.88;;
9186;SDS011;7273;48.902;9.410;2023-04-03T11:39:31;72.32;;;41.42;;
9186;SDS011;7273;48.902;9.410;2023-04-03T11:44:51;64.82;;;39.83;;
9186;SDS011;7273;48.902;9.410;2023-04-03T11:47:43;64.25;;;39.22;;
9186;SDS011;7273;48.902;9.410;2023-04-03T12:05:54;69.53;;;40.40;;
9186;SDS011;7273;48.902;9.410;2023-04-03T12:16:32;71.65;;;41.65;;
9186;SDS011;7273;48.902;9.410;2023-04-03T12:19:27;78.07;;;43.20;;
9186;SDS011;7273;48.902;9.410;2023-04-03T12:24:25;86.72;;;46.38;;
9186;SDS011;7273;48.902;9.410;2023-04-03T12:37:07;106.80;;;52.30;;
9186;SDS011;7273;48.902;9.410;2023-04-03T12:40:21;95.80;;;49.03;;
9186;SDS011;7273;48.902;9.410;2023-04-03T12:46:02;119.70;;;56.17;;
9186;SDS011;7273;48.902;9.410;2023-04-03T12:59:40;154.17;;;65.13;;
9186;SDS011;7273;48.902;9.410;2023-04-03T13:04:51;3.97;;;3.58;;
9186;SDS011;7273;48.902;9.410;2023-04-03T13:12:34;215.10;;;80.05;;
9186;SDS011;7273;48.902;9.410;2023-04-03T13:15:19;205.27;;;78.13;;
9186;SDS011;7273;48.902;9.410;2023-04-03T13:17:47;225.32;;;83.03;;
9186;SDS011;7273;48.902;9.410;2023-04-03T13:20:35;191.30;;;74.68;;
9186;SDS011;7273;48.902;9.410;2023-04-03T13:23:08;200.65;;;76.95;;
9186;SDS011;7273;48.902;9.410;2023-04-03T13:25:40;189.32;;;73.78;;
9186;SDS011;7273;48.902;9.410;2023-04-03T13:28:13;225.45;;;82.53;;
9186;SDS011;7273;48.902;9.410;2023-04-03T13:31:02;201.70;;;76.53;;
9186;SDS011;7273;48.902;9.410;2023-04-03T13:33:33;215.95;;;80.22;;
9186;SDS011;7273;48.902;9.410;2023-04-03T13:36:22;207.98;;;78.63;;
9186;SDS011;7273;48.902;9.410;2023-04-03T13:39:00;280.58;;;95.45;;
9186;SDS011;7273;48.902;9.410;2023-04-03T13:41:33;262.48;;;91.22;;
9186;SDS011;7273;48.902;9.410;2023-04-03T13:44:17;328.15;;;105.57;;
9186;SDS011;7273;48.902;9.410;2023-04-03T13:46:45;6.50;;;2.35;;
9186;SDS011;7273;48.902;9.410;2023-04-03T13:51:52;2.42;;;0.80;;
9186;SDS011;7273;48.902;9.410;2023-04-03T13:54:39;2.17;;;0.77;;
9186;SDS011;7273;48.902;9.410;2023-04-03T13:57:11;144.50;;;49.10;;
9186;SDS011;7273;48.902;9.410;2023-04-03T14:02:15;317.08;;;103.80;;
9186;SDS011;7273;48.902;9.410;2023-04-03T14:07:13;318.63;;;103.95;;
9186;SDS011;7273;48.902;9.410;2023-04-03T14:09:40;308.88;;;102.10;;
9186;SDS011;7273;48.902;9.410;2023-04-03T14:12:08;301.33;;;100.57;;
9186;SDS011;7273;48.902;9.410;2023-04-03T14:14:40;408.42;;;126.95;;
9186;SDS011;7273;48.902;9.410;2023-04-03T14:17:17;249.55;;;85.35;;
9186;SDS011;7273;48.902;9.410;2023-04-03T14:19:47;277.20;;;95.22;;
9186;SDS011;7273;48.902;9.410;2023-04-03T14:22:18;254.93;;;88.25;;
9186;SDS011;7273;48.902;9.410;2023-04-03T14:24:49;2.10;;;0.47;;
9186;SDS011;7273;48.902;9.410;2023-04-03T14:29:52;2.47;;;1.23;;
9186;SDS011;7273;48.902;9.410;2023-04-03T14:32:19;0.65;;;0.25;;
9186;SDS011;7273;48.902;9.410;2023-04-03T14:34:45;1.98;;;0.60;;
9186;SDS011;7273;48.902;9.410;2023-04-03T14:37:13;3.00;;;0.77;;
9186;SDS011;7273;48.902;9.410;2023-04-03T14:39:41;1.17;;;0.40;;
9186;SDS011;7273;48.902;9.410;2023-04-03T14:42:14;1.20;;;0.43;;
9186;SDS011;7273;48.902;9.410;2023-04-03T14:44:45;1.58;;;0.65;;
9186;SDS011;7273;48.902;9.410;2023-04-03T14:47:11;3.42;;;1.80;;
9186;SDS011;7273;48.902;9.410;2023-04-03T14:49:39;194.18;;;67.40;;
9186;SDS011;7273;48.902;9.410;2023-04-03T14:52:05;160.98;;;60.47;;
9186;SDS011;7273;48.902;9.410;2023-04-03T14:54:30;7.68;;;5.70;;
9186;SDS011;7273;48.902;9.410;2023-04-03T14:56:57;44.50;;;18.60;;
9186;SDS011;7273;48.902;9.410;2023-04-03T14:59:24;2.40;;;0.68;;
9186;SDS011;7273;48.902;9.410;2023-04-03T15:01:56;2.10;;;0.52;;
9186;SDS011;7273;48.902;9.410;2023-04-03T15:04:22;5.07;;;0.90;;
9186;SDS011;7273;48.902;9.410;2023-04-03T15:06:47;1.05;;;0.32;;
9186;SDS011;7273;48.902;9.410;2023-04-03T15:09:22;2.03;;;0.70;;
9186;SDS011;7273;48.902;9.410;2023-04-03T15:11:50;2.70;;;1.05;;
9186;SDS011;7273;48.902;9.410;2023-04-03T15:14:17;3.25;;;1.05;;
9186;SDS011;7273;48.902;9.410;2023-04-03T15:16:43;1.85;;;0.68;;
9186;SDS011;7273;48.902;9.410;2023-04-03T15:19:08;0.50;;;0.17;;
9186;SDS011;7273;48.902;9.410;2023-04-03T15:21:35;1.88;;;0.65;;
9186;SDS011;7273;48.902;9.410;2023-04-03T15:24:00;2.72;;;0.70;;
9186;SDS011;7273;48.902;9.410;2023-04-03T15:26:26;1.85;;;0.63;;
9186;SDS011;7273;48.902;9.410;2023-04-03T15:28:51;1.27;;;0.38;;
9186;SDS011;7273;48.902;9.410;2023-04-03T15:31:17;0.82;;;0.28;;
9186;SDS011;7273;48.902;9.410;2023-04-03T15:33:42;1.77;;;0.60;;
9186;SDS011;7273;48.902;9.410;2023-04-03T15:36:08;0.98;;;0.50;;
9186;SDS011;7273;48.902;9.410;2023-04-03T15:38:34;1.20;;;0.30;;
9186;SDS011;7273;48.902;9.410;2023-04-03T15:41:00;0.32;;;0.10;;
9186;SDS011;7273;48.902;9.410;2023-04-03T15:43:26;3.42;;;0.95;;
9186;SDS011;7273;48.902;9.410;2023-04-03T15:45:51;1.60;;;0.40;;
9186;SDS011;7273;48.902;9.410;2023-04-03T15:48:17;2.22;;;0.70;;
9186;SDS011;7273;48.902;9.410;2023-04-03T15:50:43;1.55;;;0.45;;
9186;SDS011;7273;48.902;9.410;2023-04-03T15:53:08;2.40;;;0.73;;
9186;SDS011;7273;48.902;9.410;2023-04-03T15:55:36;4.38;;;1.40;;
9186;SDS011;7273;48.902;9.410;2023-04-03T15:58:02;2.30;;;0.95;;
9186;SDS011;7273;48.902;9.410;2023-04-03T16:00:28;3.47;;;1.20;;
9186;SDS011;7273;48.902;9.410;2023-04-03T16:02:58;2.10;;;0.73;;
9186;SDS011;7273;48.902;9.410;2023-04-03T16:05:29;8.20;;;1.67;;
9186;SDS011;7273;48.902;9.410;2023-04-03T16:07:55;6.47;;;1.17;;
9186;SDS011;7273;48.902;9.410;2023-04-03T16:10:23;2.33;;;0.85;;
9186;SDS011;7273;48.902;9.410;2023-04-03T16:12:48;1.90;;;0.88;;
9186;SDS011;7273;48.902;9.410;2023-04-03T16:15:13;3.33;;;1.20;;
9186;SDS011;7273;48.902;9.410;2023-04-03T16:17:39;3.33;;;0.88;;
9186;SDS011;7273;48.902;9.410;2023-04-03T16:20:08;2.05;;;0.82;;
9186;SDS011;7273;48.902;9.410;2023-04-03T16:22:35;2.53;;;0.80;;
9186;SDS011;7273;48.902;9.410;2023-04-03T16:25:01;2.83;;;0.85;;
9186;SDS011;7273;48.902;9.410;2023-04-03T16:27:28;3.30;;;1.10;;
9186;SDS011;7273;48.902;9.410;2023-04-03T16:29:55;4.32;;;1.38;;
9186;SDS011;7273;48.902;9.410;2023-04-03T16:32:21;3.45;;;1.35;;
9186;SDS011;7273;48.902;9.410;2023-04-03T16:34:48;1.45;;;0.63;;
9186;SDS011;7273;48.902;9.410;2023-04-03T16:37:14;1.88;;;0.63;;
9186;SDS011;7273;48.902;9.410;2023-04-03T16:39:40;3.50;;;1.35;;
9186;SDS011;7273;48.902;9.410;2023-04-03T16:42:05;2.90;;;0.98;;
9186;SDS011;7273;48.902;9.410;2023-04-03T16:44:31;3.15;;;1.00;;
9186;SDS011;7273;48.902;9.410;2023-04-03T16:46:56;1.67;;;0.65;;
9186;SDS011;7273;48.902;9.410;2023-04-03T16:49:22;2.53;;;0.82;;
9186;SDS011;7273;48.902;9.410;2023-04-03T16:51:48;2.38;;;0.70;;
9186;SDS011;7273;48.902;9.410;2023-04-03T16:54:13;2.25;;;1.08;;
9186;SDS011;7273;48.902;9.410;2023-04-03T16:56:39;0.98;;;0.63;;
9186;SDS011;7273;48.902;9.410;2023-04-03T16:59:05;1.67;;;0.65;;
9186;SDS011;7273;48.902;9.410;2023-04-03T17:01:30;2.95;;;1.65;;
9186;SDS011;7273;48.902;9.410;2023-04-03T17:03:56;3.25;;;0.80;;
9186;SDS011;7273;48.902;9.410;2023-04-03T17:06:22;2.47;;;0.95;;
9186;SDS011;7273;48.902;9.410;2023-04-03T17:08:49;1.77;;;0.85;;
9186;SDS011;7273;48.902;9.410;2023-04-03T17:11:15;1.92;;;0.60;;
9186;SDS011;7273;48.902;9.410;2023-04-03T17:13:41;2.20;;;0.80;;
9186;SDS011;7273;48.902;9.410;2023-04-03T17:16:07;0.65;;;0.25;;
9186;SDS011;7273;48.902;9.410;2023-04-03T17:18:36;1.50;;;0.43;;
9186;SDS011;7273;48.902;9.410;2023-04-03T17:21:02;1.90;;;0.63;;
9186;SDS011;7273;48.902;9.410;2023-04-03T17:23:28;1.45;;;0.47;;
9186;SDS011;7273;48.902;9.410;2023-04-03T17:25:54;1.45;;;0.50;;
9186;SDS011;7273;48.902;9.410;2023-04-03T17:28:23;1.88;;;0.65;;
9186;SDS011;7273;48.902;9.410;2023-04-03T17:30:58;1.92;;;0.73;;
9186;SDS011;7273;48.902;9.410;2023-04-03T17:33:25;1.95;;;0.73;;